createdAt,value
2018-04-21T00:01:19.064Z,16.10
2018-04-21T00:03:46.610Z,16.10
2018-04-21T00:06:14.197Z,16.10
2018-04-21T00:08:41.749Z,16.00
2018-04-21T00:11:09.296Z,16.00
2018-04-21T00:13:36.872Z,16.00
2018-04-21T00:16:04.474Z,16.00
2018-04-21T00:18:32.019Z,15.90
2018-04-21T00:20:59.566Z,15.90
2018-04-21T00:23:27.149Z,15.80
2018-04-21T00:25:54.705Z,15.70
2018-04-21T00:28:22.264Z,15.70
2018-04-21T00:30:49.852Z,15.70
2018-04-21T00:33:17.412Z,15.70
2018-04-21T00:35:44.968Z,15.70
2018-04-21T00:38:12.528Z,15.80
2018-04-21T00:40:40.880Z,15.80
2018-04-21T00:43:08.437Z,15.70
2018-04-21T00:45:35.980Z,15.70
2018-04-21T00:48:03.567Z,15.70
2018-04-21T00:50:31.110Z,15.70
2018-04-21T00:52:58.672Z,15.70
2018-04-21T00:55:26.233Z,15.80
2018-04-21T00:57:53.777Z,15.90
2018-04-21T01:00:21.345Z,15.90
2018-04-21T01:02:49.248Z,16.00
2018-04-21T01:05:17.584Z,16.00
2018-04-21T01:07:45.135Z,16.00
2018-04-21T01:10:12.708Z,16.00
2018-04-21T01:12:40.253Z,16.00
2018-04-21T01:15:07.830Z,16.10
2018-04-21T01:17:35.386Z,16.30
2018-04-21T01:20:02.974Z,16.20
2018-04-21T01:22:30.588Z,16.30
2018-04-21T01:24:58.162Z,16.30
2018-04-21T01:27:25.720Z,16.40
2018-04-21T01:29:53.296Z,16.30
2018-04-21T01:32:20.839Z,16.40
2018-04-21T01:34:48.395Z,16.30
2018-04-21T01:37:15.929Z,16.30
2018-04-21T01:39:43.476Z,16.20
2018-04-21T01:42:11.839Z,16.10
2018-04-21T01:44:39.396Z,16.10
2018-04-21T01:47:06.964Z,16.10
2018-04-21T01:49:35.283Z,16.10
2018-04-21T01:52:02.867Z,16.00
2018-04-21T01:54:30.404Z,16.00
2018-04-21T01:56:57.969Z,15.90
2018-04-21T01:59:25.512Z,15.90
2018-04-21T02:01:53.084Z,15.90
2018-04-21T02:04:20.637Z,15.90
2018-04-21T02:06:48.209Z,15.90
2018-04-21T02:09:15.756Z,15.80
2018-04-21T02:11:43.328Z,15.80
2018-04-21T02:14:10.913Z,15.80
2018-04-21T02:16:38.478Z,15.70
2018-04-21T02:19:07.000Z,15.60
2018-04-21T02:21:35.318Z,15.60
2018-04-21T02:24:02.860Z,15.60
2018-04-21T02:26:30.461Z,15.50
2018-04-21T02:28:58.002Z,15.50
2018-04-21T02:31:25.551Z,15.60
2018-04-21T02:33:53.092Z,15.50
2018-04-21T02:36:20.662Z,15.60
2018-04-21T02:38:48.212Z,15.60
2018-04-21T02:41:15.737Z,15.60
2018-04-21T02:43:43.329Z,15.60
2018-04-21T02:46:10.907Z,15.60
2018-04-21T02:48:38.467Z,15.60
2018-04-21T02:51:06.018Z,15.50
2018-04-21T02:53:33.593Z,15.50
2018-04-21T02:56:01.133Z,15.60
2018-04-21T02:58:28.692Z,15.60
2018-04-21T03:00:56.508Z,15.50
2018-04-21T03:03:24.066Z,15.60
2018-04-21T03:05:51.601Z,15.60
2018-04-21T03:08:19.168Z,15.50
2018-04-21T03:10:46.700Z,15.40
2018-04-21T03:13:14.295Z,15.30
2018-04-21T03:15:41.837Z,15.40
2018-04-21T03:18:09.388Z,15.30
2018-04-21T03:20:36.952Z,15.40
2018-04-21T03:23:04.474Z,15.40
2018-04-21T03:25:32.814Z,15.30
2018-04-21T03:28:00.360Z,15.30
2018-04-21T03:30:27.923Z,15.40
2018-04-21T03:32:55.477Z,15.30
2018-04-21T03:35:23.039Z,15.30
2018-04-21T03:37:50.607Z,15.30
2018-04-21T03:40:18.160Z,15.20
2018-04-21T03:42:45.702Z,15.20
2018-04-21T03:45:13.261Z,15.10
2018-04-21T03:47:40.794Z,15.00
2018-04-21T03:50:09.129Z,14.90
2018-04-21T03:52:36.664Z,14.90
2018-04-21T03:55:04.223Z,14.90
2018-04-21T03:57:31.768Z,14.90
2018-04-21T04:00:00.077Z,14.90
2018-04-21T04:02:27.624Z,14.90
2018-04-21T04:04:55.160Z,14.90
2018-04-21T04:07:23.501Z,14.90
2018-04-21T04:09:51.037Z,14.80
2018-04-21T04:12:18.590Z,14.90
2018-04-21T04:14:58.095Z,14.90
2018-04-21T04:17:38.235Z,15.10
2018-04-21T04:23:19.513Z,15.20
2018-04-21T04:25:47.056Z,15.30
2018-04-21T04:28:14.614Z,15.40
2018-04-21T04:30:42.170Z,15.40
2018-04-21T04:33:09.744Z,15.50
2018-04-21T04:35:37.280Z,15.80
2018-04-21T04:38:04.855Z,16.10
2018-04-21T04:40:32.404Z,16.40
2018-04-21T04:42:59.964Z,16.50
2018-04-21T04:45:27.500Z,16.50
2018-04-21T04:47:55.833Z,16.80
2018-04-21T04:50:23.471Z,16.70
2018-04-21T04:52:51.057Z,16.90
2018-04-21T04:55:18.599Z,17.30
2018-04-21T04:57:46.140Z,17.20
2018-04-21T05:00:13.713Z,17.30
2018-04-21T05:02:41.276Z,17.20
2018-04-21T05:05:08.831Z,17.30
2018-04-21T05:07:36.362Z,17.50
2018-04-21T05:10:04.693Z,18.40
2018-04-21T05:12:32.232Z,18.30
2018-04-21T05:14:59.789Z,18.90
2018-04-21T05:17:27.350Z,19.20
2018-04-21T05:19:54.907Z,19.40
2018-04-21T05:22:22.465Z,19.70
2018-04-21T05:24:50.023Z,19.70
2018-04-21T05:27:17.587Z,19.60
2018-04-21T05:29:45.173Z,19.80
2018-04-21T05:32:12.744Z,20.10
2018-04-21T05:34:40.327Z,20.10
2018-04-21T05:37:07.878Z,20.10
2018-04-21T05:39:35.420Z,19.90
2018-04-21T05:42:02.996Z,19.70
2018-04-21T05:44:30.553Z,19.60
2018-04-21T05:46:58.108Z,20.00
2018-04-21T05:49:25.654Z,20.50
2018-04-21T05:51:53.225Z,20.70
2018-04-21T05:54:20.776Z,20.90
2018-04-21T05:56:48.369Z,21.20
2018-04-21T05:59:15.908Z,21.70
2018-04-21T06:01:43.464Z,21.30
2018-04-21T06:04:11.003Z,21.00
2018-04-21T06:06:38.559Z,20.20
2018-04-21T06:09:06.121Z,20.80
2018-04-21T06:11:33.698Z,21.30
2018-04-21T06:14:02.080Z,21.80
2018-04-21T06:16:29.664Z,21.80
2018-04-21T06:18:57.241Z,21.90
2018-04-21T06:21:25.548Z,22.10
2018-04-21T06:23:53.112Z,22.10
2018-04-21T06:26:20.668Z,22.20
2018-04-21T06:28:48.289Z,22.80
2018-04-21T06:31:15.839Z,23.20
2018-04-21T06:33:43.411Z,23.30
2018-04-21T06:36:10.968Z,23.60
2018-04-21T06:38:38.520Z,23.10
2018-04-21T06:41:06.097Z,23.50
2018-04-21T06:43:34.419Z,23.80
2018-04-21T06:46:01.959Z,23.80
2018-04-21T06:48:29.546Z,23.90
2018-04-21T06:50:57.096Z,24.30
2018-04-21T06:53:24.656Z,24.20
2018-04-21T06:55:52.183Z,24.60
2018-04-21T06:58:20.509Z,25.00
2018-04-21T07:00:48.111Z,25.00
2018-04-21T07:03:16.463Z,24.90
2018-04-21T07:05:44.018Z,24.90
2018-04-21T07:08:11.549Z,25.10
2018-04-21T07:10:39.115Z,25.30
2018-04-21T07:13:06.713Z,25.30
2018-04-21T07:15:34.293Z,25.30
2018-04-21T07:18:01.853Z,25.60
2018-04-21T07:20:30.173Z,25.70
2018-04-21T07:22:57.732Z,25.70
2018-04-21T07:25:25.337Z,26.00
2018-04-21T07:27:52.880Z,26.10
2018-04-21T07:30:20.432Z,26.70
2018-04-21T07:32:47.969Z,26.60
2018-04-21T07:35:15.542Z,27.00
2018-04-21T07:37:43.063Z,26.90
2018-04-21T07:40:10.625Z,26.60
2018-04-21T07:42:38.150Z,26.80
2018-04-21T07:45:05.715Z,26.90
2018-04-21T07:47:33.251Z,26.50
2018-04-21T07:50:00.884Z,26.90
2018-04-21T07:52:28.430Z,26.50
2018-04-21T07:54:55.982Z,26.60
2018-04-21T07:57:24.306Z,26.60
2018-04-21T07:59:51.865Z,26.60
2018-04-21T08:02:19.436Z,26.70
2018-04-21T08:04:46.991Z,27.30
2018-04-21T08:07:14.540Z,27.30
2018-04-21T08:09:42.073Z,27.20
2018-04-21T08:12:09.666Z,27.30
2018-04-21T08:14:37.235Z,26.70
2018-04-21T08:17:04.795Z,27.00
2018-04-21T08:19:32.328Z,27.10
2018-04-21T08:21:59.882Z,27.20
2018-04-21T08:24:27.425Z,26.70
2018-04-21T08:26:55.758Z,26.90
2018-04-21T08:29:23.308Z,26.80
2018-04-21T08:31:50.864Z,26.80
2018-04-21T08:34:18.420Z,27.40
2018-04-21T08:36:45.999Z,27.90
2018-04-21T08:39:13.524Z,27.60
2018-04-21T08:41:41.083Z,27.50
2018-04-21T08:44:08.650Z,27.80
2018-04-21T08:46:36.219Z,27.20
2018-04-21T08:49:03.768Z,27.50
2018-04-21T08:51:31.346Z,27.60
2018-04-21T08:53:58.943Z,27.30
2018-04-21T08:56:26.493Z,27.30
2018-04-21T08:58:54.043Z,27.70
2018-04-21T09:01:21.591Z,28.10
2018-04-21T09:03:49.151Z,28.20
2018-04-21T09:06:16.697Z,28.30
2018-04-21T09:08:44.284Z,27.90
2018-04-21T09:11:11.812Z,27.90
2018-04-21T09:13:39.401Z,27.90
2018-04-21T09:16:06.945Z,28.00
2018-04-21T09:18:34.520Z,28.30
2018-04-21T09:21:02.044Z,28.30
2018-04-21T09:23:29.587Z,28.30
2018-04-21T09:25:57.908Z,28.10
2018-04-21T09:28:25.467Z,28.10
2018-04-21T09:30:53.030Z,28.00
2018-04-21T09:33:20.581Z,28.30
2018-04-21T09:35:48.806Z,28.70
2018-04-21T09:38:16.348Z,28.30
2018-04-21T09:40:43.924Z,28.10
2018-04-21T09:43:12.450Z,28.10
2018-04-21T09:45:39.999Z,28.30
2018-04-21T09:48:07.552Z,28.30
2018-04-21T09:50:35.140Z,28.20
2018-04-21T09:53:02.677Z,27.70
2018-04-21T09:55:30.236Z,27.60
2018-04-21T09:57:57.777Z,27.80
2018-04-21T10:00:31.822Z,27.60
2018-04-21T10:02:59.358Z,27.60
2018-04-21T10:05:27.694Z,27.30
2018-04-21T10:07:55.333Z,27.20
2018-04-21T10:10:22.883Z,27.30
2018-04-21T10:12:50.436Z,27.70
2018-04-21T10:15:17.977Z,27.90
2018-04-21T10:17:46.321Z,27.70
2018-04-21T10:20:13.865Z,27.70
2018-04-21T10:22:41.420Z,27.80
2018-04-21T10:25:08.948Z,27.10
2018-04-21T10:27:36.549Z,27.40
2018-04-21T10:30:04.093Z,27.80
2018-04-21T10:32:31.658Z,27.30
2018-04-21T10:34:59.197Z,27.20
2018-04-21T10:37:26.776Z,27.20
2018-04-21T10:39:54.309Z,27.60
2018-04-21T10:42:21.872Z,27.20
2018-04-21T10:44:49.411Z,27.70
2018-04-21T10:47:17.724Z,26.70
2018-04-21T10:49:45.272Z,26.70
2018-04-21T10:52:12.813Z,26.60
2018-04-21T10:54:41.147Z,27.20
2018-04-21T10:57:08.727Z,27.20
2018-04-21T10:59:36.286Z,27.20
2018-04-21T11:02:03.829Z,27.30
2018-04-21T11:04:31.390Z,27.50
2018-04-21T11:06:58.948Z,27.60
2018-04-21T11:09:26.505Z,27.20
2018-04-21T11:11:54.032Z,26.90
2018-04-21T11:14:21.628Z,26.90
2018-04-21T11:16:49.160Z,27.30
2018-04-21T11:19:16.714Z,27.60
2018-04-21T11:21:44.256Z,27.60
2018-04-21T11:24:13.045Z,27.30
2018-04-21T11:26:41.345Z,27.20
2018-04-21T11:29:08.899Z,27.20
2018-04-21T11:31:36.431Z,27.20
2018-04-21T11:34:04.766Z,26.50
2018-04-21T11:36:32.292Z,26.40
2018-04-21T11:38:59.836Z,26.30
2018-04-21T11:41:27.431Z,26.10
2018-04-21T11:43:54.968Z,25.50
2018-04-21T11:46:22.535Z,25.60
2018-04-21T11:48:50.074Z,25.00
2018-04-21T11:51:18.399Z,25.50
2018-04-21T11:53:45.958Z,25.50
2018-04-21T11:56:13.521Z,25.60
2018-04-21T11:58:41.044Z,25.50
2018-04-21T12:01:09.368Z,25.20
2018-04-21T12:03:36.915Z,25.20
2018-04-21T12:06:04.480Z,25.20
2018-04-21T12:08:32.022Z,25.00
2018-04-21T12:10:59.575Z,25.10
2018-04-21T12:13:27.115Z,25.10
2018-04-21T12:15:55.435Z,25.10
2018-04-21T12:18:22.957Z,25.10
2018-04-21T12:20:51.286Z,24.40
2018-04-21T12:23:18.834Z,24.40
2018-04-21T12:25:46.408Z,24.70
2018-04-21T12:28:13.945Z,24.80
2018-04-21T12:30:41.479Z,24.80
2018-04-21T12:33:09.037Z,24.70
2018-04-21T12:35:37.336Z,24.40
2018-04-21T12:38:04.890Z,24.40
2018-04-21T12:40:32.430Z,24.40
2018-04-21T12:43:00.764Z,24.60
2018-04-21T12:45:28.293Z,24.60
2018-04-21T12:47:55.848Z,24.60
2018-04-21T12:50:23.397Z,24.30
2018-04-21T12:52:50.963Z,24.50
2018-04-21T12:55:18.512Z,24.60
2018-04-21T12:57:46.079Z,24.20
2018-04-21T13:00:13.614Z,24.20
2018-04-21T13:02:41.173Z,24.30
2018-04-21T13:05:08.708Z,24.40
2018-04-21T13:07:36.269Z,24.70
2018-04-21T13:10:03.815Z,24.60
2018-04-21T13:12:31.392Z,24.60
2018-04-21T13:14:58.944Z,24.70
2018-04-21T13:17:26.480Z,24.50
2018-04-21T13:19:54.064Z,24.60
2018-04-21T13:22:21.612Z,24.30
2018-04-21T13:24:49.176Z,24.40
2018-04-21T13:27:16.734Z,24.40
2018-04-21T13:29:44.301Z,24.40
2018-04-21T13:32:11.904Z,24.30
2018-04-21T13:34:39.468Z,24.10
2018-04-21T13:37:07.796Z,23.60
2018-04-21T13:39:35.384Z,23.50
2018-04-21T13:42:02.914Z,23.60
2018-04-21T13:44:30.469Z,23.90
2018-04-21T13:46:58.016Z,24.10
2018-04-21T13:49:25.588Z,24.00
2018-04-21T13:51:53.143Z,23.90
2018-04-21T13:54:20.720Z,23.60
2018-04-21T13:56:48.268Z,23.60
2018-04-21T13:59:15.828Z,23.70
2018-04-21T14:01:43.374Z,23.80
2018-04-21T14:04:10.952Z,23.90
2018-04-21T14:06:38.520Z,23.70
2018-04-21T14:09:06.067Z,23.70
2018-04-21T14:11:33.631Z,23.60
2018-04-21T14:14:01.163Z,23.60
2018-04-21T14:16:28.729Z,23.60
2018-04-21T14:18:56.296Z,23.60
2018-04-21T14:21:23.882Z,23.60
2018-04-21T14:23:51.413Z,23.50
2018-04-21T14:26:19.049Z,23.60
2018-04-21T14:28:46.580Z,23.50
2018-04-21T14:31:15.117Z,23.60
2018-04-21T14:33:42.644Z,23.20
2018-04-21T14:36:10.208Z,23.30
2018-04-21T14:38:37.746Z,23.20
2018-04-21T14:41:05.326Z,23.30
2018-04-21T14:43:32.852Z,23.30
2018-04-21T14:46:00.400Z,23.20
2018-04-21T14:48:27.960Z,23.20
2018-04-21T14:50:55.498Z,23.10
2018-04-21T14:53:23.816Z,23.10
2018-04-21T14:55:51.396Z,23.10
2018-04-21T14:58:19.918Z,23.30
2018-04-21T15:00:48.221Z,23.20
2018-04-21T15:03:15.788Z,23.20
2018-04-21T15:05:43.391Z,23.10
2018-04-21T15:08:10.952Z,23.10
2018-04-21T15:10:38.488Z,23.00
2018-04-21T15:13:06.047Z,22.90
2018-04-21T15:15:33.592Z,23.00
2018-04-21T15:18:01.156Z,22.80
2018-04-21T15:20:28.700Z,22.70
2018-04-21T15:22:56.261Z,22.70
2018-04-21T15:25:23.930Z,22.80
2018-04-21T15:27:51.511Z,22.80
2018-04-21T15:30:19.045Z,22.80
2018-04-21T15:32:46.585Z,22.60
2018-04-21T15:35:14.158Z,22.60
2018-04-21T15:37:41.698Z,22.50
2018-04-21T15:40:09.269Z,22.50
2018-04-21T15:42:36.852Z,22.50
2018-04-21T15:45:04.418Z,22.50
2018-04-21T15:47:31.952Z,22.50
2018-04-21T15:49:59.513Z,22.50
2018-04-21T15:52:27.054Z,22.40
2018-04-21T15:54:55.400Z,22.20
2018-04-21T15:57:22.964Z,22.10
2018-04-21T15:59:50.524Z,22.20
2018-04-21T16:02:18.078Z,22.20
2018-04-21T16:04:45.628Z,22.10
2018-04-21T16:07:13.189Z,22.10
2018-04-21T16:09:40.747Z,22.10
2018-04-21T16:12:08.294Z,22.10
2018-04-21T16:14:35.866Z,21.90
2018-04-21T16:17:03.423Z,21.90
2018-04-21T16:19:30.974Z,21.80
2018-04-21T16:21:58.544Z,21.70
2018-04-21T16:24:26.138Z,21.70
2018-04-21T16:26:53.658Z,21.60
2018-04-21T16:29:21.264Z,21.50
2018-04-21T16:31:48.823Z,21.50
2018-04-21T16:34:16.392Z,21.40
2018-04-21T16:36:43.945Z,21.40
2018-04-21T16:39:11.482Z,21.30
2018-04-21T16:41:39.031Z,21.20
2018-04-21T16:44:06.613Z,21.10
2018-04-21T16:46:35.183Z,21.10
2018-04-21T16:49:02.723Z,21.00
2018-04-21T16:51:30.301Z,21.00
2018-04-21T16:53:57.848Z,20.80
2018-04-21T16:56:25.504Z,20.60
2018-04-21T16:58:53.092Z,20.60
2018-04-21T17:01:20.640Z,20.50
2018-04-21T17:03:48.170Z,20.40
2018-04-21T17:06:15.793Z,20.30
2018-04-21T17:08:44.113Z,20.20
2018-04-21T17:11:11.660Z,20.20
2018-04-21T17:13:39.221Z,20.10
2018-04-21T17:16:07.517Z,19.80
2018-04-21T17:18:35.098Z,19.80
2018-04-21T17:21:02.722Z,19.70
2018-04-21T17:23:30.320Z,19.60
2018-04-21T17:25:57.876Z,19.50
2018-04-21T17:28:25.441Z,19.40
2018-04-21T17:30:52.996Z,19.30
2018-04-21T17:33:20.568Z,19.20
2018-04-21T17:35:48.695Z,19.10
2018-04-21T17:38:16.305Z,18.90
2018-04-21T17:40:43.835Z,18.80
2018-04-21T17:43:11.454Z,18.80
2018-04-21T17:45:39.047Z,18.60
2018-04-21T17:48:06.633Z,18.50
2018-04-21T17:50:34.193Z,18.40
2018-04-21T17:53:01.737Z,18.40
2018-04-21T17:55:29.298Z,18.30
2018-04-21T17:57:56.837Z,18.20
2018-04-21T18:00:25.178Z,18.10
2018-04-21T18:02:52.751Z,18.10
2018-04-21T18:05:20.328Z,18.10
2018-04-21T18:07:48.628Z,17.90
2018-04-21T18:10:16.185Z,17.90
2018-04-21T18:12:43.761Z,17.80
2018-04-21T18:15:11.323Z,17.70
2018-04-21T18:17:38.863Z,17.60
2018-04-21T18:20:06.424Z,17.60
2018-04-21T18:22:33.957Z,17.50
2018-04-21T18:25:01.523Z,17.40
2018-04-21T18:27:30.715Z,17.10
2018-04-21T18:29:58.281Z,17.10
2018-04-21T18:32:25.820Z,17.00
2018-04-21T18:34:53.420Z,17.00
2018-04-21T18:37:21.732Z,16.80
2018-04-21T18:39:49.270Z,16.80
2018-04-21T18:42:16.851Z,16.70
2018-04-21T18:44:44.424Z,16.60
2018-04-21T18:47:12.030Z,16.40
2018-04-21T18:49:39.547Z,16.30
2018-04-21T18:52:07.104Z,16.20
2018-04-21T18:54:34.751Z,16.00
2018-04-21T18:57:02.352Z,15.90
2018-04-21T18:59:29.893Z,16.00
2018-04-21T19:01:57.462Z,15.90
2018-04-21T19:04:25.016Z,15.80
2018-04-21T19:06:52.654Z,15.70
2018-04-21T19:09:20.193Z,15.60
2018-04-21T19:11:47.777Z,15.50
2018-04-21T19:14:15.312Z,15.40
2018-04-21T19:16:42.914Z,15.30
2018-04-21T19:19:10.480Z,15.20
2018-04-21T19:21:38.020Z,15.10
2018-04-21T19:24:05.588Z,15.00
2018-04-21T19:26:33.122Z,15.00
2018-04-21T19:29:00.701Z,14.90
2018-04-21T19:31:28.243Z,14.90
2018-04-21T19:33:55.927Z,14.80
2018-04-21T19:36:24.143Z,14.70
2018-04-21T19:38:51.780Z,14.70
2018-04-21T19:41:19.312Z,14.60
2018-04-21T19:43:46.860Z,14.60
2018-04-21T19:46:14.455Z,14.60
2018-04-21T19:48:42.145Z,14.50
2018-04-21T19:51:09.744Z,14.40
2018-04-21T19:53:38.046Z,14.20
2018-04-21T19:56:05.592Z,14.20
2018-04-21T19:58:33.190Z,14.20
2018-04-21T20:01:00.734Z,14.20
2018-04-21T20:03:28.323Z,14.20
2018-04-21T20:05:55.854Z,14.10
2018-04-21T20:08:23.568Z,14.00
2018-04-21T20:10:51.898Z,13.90
2018-04-21T20:13:19.435Z,13.90
2018-04-21T20:15:46.997Z,13.80
2018-04-21T20:18:14.716Z,13.80
2018-04-21T20:20:42.255Z,13.70
2018-04-21T20:23:09.791Z,13.70
2018-04-21T20:25:37.663Z,13.60
2018-04-21T20:28:05.247Z,13.50
2018-04-21T20:30:32.815Z,13.50
2018-04-21T20:33:01.148Z,13.40
2018-04-21T20:35:28.720Z,13.40
2018-04-21T20:37:56.255Z,13.40
2018-04-21T20:40:23.896Z,13.30
2018-04-21T20:42:52.212Z,13.20
2018-04-21T20:45:19.804Z,13.20
2018-04-21T20:47:47.335Z,13.10
2018-04-21T20:50:15.800Z,13.10
2018-04-21T20:52:43.340Z,13.00
2018-04-21T20:55:11.663Z,13.00
2018-04-21T20:57:39.222Z,12.90
2018-04-21T21:00:06.755Z,13.00
2018-04-21T21:02:34.317Z,12.90
2018-04-21T21:05:01.854Z,12.70
2018-04-21T21:07:30.179Z,12.50
2018-04-21T21:09:57.708Z,12.50
2018-04-21T21:12:26.108Z,12.40
2018-04-21T21:14:53.601Z,12.40
2018-04-21T21:17:21.165Z,12.40
2018-04-21T21:19:48.712Z,12.30
2018-04-21T21:22:16.269Z,12.20
2018-04-21T21:24:43.810Z,12.20
2018-04-21T21:27:11.370Z,12.20
2018-04-21T21:29:38.913Z,12.20
2018-04-21T21:32:07.232Z,12.20
2018-04-21T21:34:34.757Z,12.20
2018-04-21T21:37:02.322Z,12.10
2018-04-21T21:39:30.285Z,12.20
2018-04-21T21:41:57.867Z,12.40
2018-04-21T21:44:25.488Z,12.40
2018-04-21T21:46:53.806Z,12.30
2018-04-21T21:49:21.385Z,12.30
2018-04-21T21:51:48.912Z,12.20
2018-04-21T21:54:16.529Z,12.20
2018-04-21T21:56:44.051Z,12.30
2018-04-21T21:59:11.617Z,12.30
2018-04-21T22:01:39.156Z,12.30
2018-04-21T22:04:06.724Z,12.30
2018-04-21T22:06:39.906Z,12.20
2018-04-21T22:09:07.515Z,12.20
2018-04-21T22:11:35.073Z,12.20
2018-04-21T22:14:02.658Z,12.10
2018-04-21T22:16:30.203Z,12.00
2018-04-21T22:18:57.765Z,12.00
2018-04-21T22:21:25.369Z,12.00
2018-04-21T22:23:52.997Z,12.00
2018-04-21T22:26:20.554Z,11.90
2018-04-21T22:28:48.113Z,12.00
2018-04-21T22:31:15.687Z,12.00
2018-04-21T22:33:44.004Z,11.80
2018-04-21T22:36:11.551Z,11.80
2018-04-21T22:38:39.088Z,11.80
2018-04-21T22:41:07.404Z,11.70
2018-04-21T22:43:34.944Z,11.70
2018-04-21T22:46:03.269Z,11.60
2018-04-21T22:48:31.590Z,11.50
2018-04-21T22:50:59.925Z,11.50
2018-04-21T22:53:28.242Z,11.50
2018-04-21T22:55:56.567Z,11.50
2018-04-21T22:58:24.133Z,11.40
2018-04-21T23:00:51.707Z,11.50
2018-04-21T23:03:19.248Z,11.50
2018-04-21T23:05:46.813Z,11.50
2018-04-21T23:08:14.360Z,11.30
2018-04-21T23:10:41.913Z,11.30
2018-04-21T23:13:09.448Z,11.20
2018-04-21T23:15:37.783Z,11.10
2018-04-21T23:18:05.316Z,11.10
2018-04-21T23:20:32.897Z,11.10
2018-04-21T23:23:00.438Z,11.00
2018-04-21T23:25:27.981Z,11.00
2018-04-21T23:27:55.536Z,10.90
2018-04-21T23:30:23.831Z,10.80
2018-04-21T23:32:51.387Z,10.80
2018-04-21T23:35:18.921Z,10.80
2018-04-21T23:37:47.364Z,10.80
2018-04-21T23:40:14.896Z,10.80
2018-04-21T23:42:42.452Z,10.70
2018-04-21T23:45:10.006Z,10.60
2018-04-21T23:47:37.573Z,10.60
2018-04-21T23:50:05.102Z,10.60
2018-04-21T23:52:33.424Z,10.40
2018-04-21T23:55:00.963Z,10.40
2018-04-21T23:57:28.524Z,10.40
2018-04-21T23:59:56.073Z,10.40
